createdAt,value
2019-05-16T11:45:30.548Z,99800.38
2019-05-16T11:47:58.293Z,99801.96
2019-05-16T11:50:28.073Z,99805.78
2019-05-16T11:52:56.916Z,99795.37
2019-05-16T11:55:32.281Z,99786.27
2019-05-16T11:57:56.745Z,99789.02
2019-05-16T12:00:24.091Z,99784.61
2019-05-16T12:02:51.742Z,99796.81
2019-05-16T12:05:19.299Z,99785.63
2019-05-16T12:07:48.587Z,99781.70
2019-05-16T12:10:16.590Z,99785.69
2019-05-16T12:12:44.233Z,99780.83
2019-05-16T12:15:12.269Z,99778.70
2019-05-16T12:17:39.968Z,99778.26
2019-05-16T12:20:08.129Z,99777.63
2019-05-16T12:22:37.734Z,99774.83
2019-05-16T12:25:08.179Z,99783.86
2019-05-16T12:27:41.972Z,99779.29
2019-05-16T12:30:12.963Z,99777.53
2019-05-16T12:32:37.190Z,99772.64
2019-05-16T12:35:06.521Z,99772.71
2019-05-16T12:37:37.155Z,99786.41
2019-05-16T12:40:07.976Z,99772.84
2019-05-16T12:42:36.534Z,99770.38
2019-05-16T12:45:07.027Z,99766.84
2019-05-16T12:54:22.015Z,99775.17
2019-05-16T12:56:49.766Z,99761.81
2019-05-16T12:59:20.597Z,99755.08
2019-05-16T13:01:48.190Z,99779.73
2019-05-16T13:04:18.953Z,99776.24
2019-05-16T13:06:47.141Z,99767.23
2019-05-16T13:09:14.940Z,99773.20
2019-05-16T13:11:42.501Z,99761.44
2019-05-16T13:14:11.391Z,99771.89
2019-05-16T13:16:39.264Z,99770.47
2019-05-16T13:19:23.205Z,99769.48
2019-05-16T13:25:07.415Z,99768.01
2019-05-16T13:27:37.015Z,99787.59
2019-05-16T13:30:07.391Z,99780.69
2019-05-16T13:32:37.531Z,99784.83
2019-05-16T13:35:07.640Z,99773.09
2019-05-16T13:37:35.512Z,99776.08
2019-05-16T13:40:07.907Z,99776.08
2019-05-16T13:42:36.864Z,99773.41
2019-05-16T13:45:07.719Z,99782.19
2019-05-16T13:47:37.660Z,99771.69
2019-05-16T13:50:11.575Z,99775.62
2019-05-16T13:52:36.667Z,99782.51
2019-05-16T13:55:07.042Z,99782.03
2019-05-16T13:57:37.124Z,99782.88
2019-05-16T14:00:07.572Z,99782.88
2019-05-16T14:02:37.562Z,99774.77
2019-05-16T14:05:07.539Z,99788.45
2019-05-16T14:07:37.340Z,99794.66
2019-05-16T14:10:07.270Z,99791.38
2019-05-16T14:12:36.743Z,99784.41
2019-05-16T14:15:08.452Z,99789.69
2019-05-16T14:17:37.007Z,99779.30
2019-05-16T14:20:14.407Z,99776.75
2019-05-16T14:22:38.696Z,99776.13
2019-05-16T14:25:07.302Z,99776.63
2019-05-16T14:27:34.990Z,99777.96
2019-05-16T14:30:07.549Z,99782.36
2019-05-16T14:32:40.521Z,99789.72
2019-05-16T14:35:08.572Z,99787.29
2019-05-16T14:37:37.858Z,99789.52
2019-05-16T14:40:06.083Z,99777.63
2019-05-16T14:42:33.563Z,99788.88
2019-05-16T14:45:10.872Z,99777.81
2019-05-16T14:47:30.980Z,99782.12
2019-05-16T14:49:58.615Z,99780.59
2019-05-16T14:52:27.966Z,99783.80
2019-05-16T14:54:57.529Z,99783.67
2019-05-16T14:57:27.388Z,99783.46
2019-05-16T14:59:56.564Z,99772.47
2019-05-16T15:02:27.255Z,99768.20
2019-05-16T15:04:53.935Z,99777.05
2019-05-16T15:07:21.577Z,99781.69
2019-05-16T15:09:49.266Z,99772.99
2019-05-16T15:12:17.352Z,99780.33
2019-05-16T15:14:45.147Z,99776.58
2019-05-16T15:17:12.770Z,99776.04
2019-05-16T15:19:40.528Z,99774.39
2019-05-16T15:22:08.248Z,99779.17
2019-05-16T15:24:37.073Z,99774.60
2019-05-16T15:27:07.914Z,99788.39
2019-05-16T15:29:34.473Z,99764.69
2019-05-16T15:32:02.139Z,99764.69
2019-05-16T15:34:30.320Z,99778.19
2019-05-16T15:36:59.965Z,99786.88
2019-05-16T15:39:27.992Z,99784.66
2019-05-16T15:41:56.625Z,99769.28
2019-05-16T15:44:24.525Z,99777.38
2019-05-16T15:46:52.198Z,99784.08
2019-05-16T15:49:20.186Z,99780.33
2019-05-16T15:51:47.707Z,99780.87
2019-05-16T15:54:21.942Z,99788.95
2019-05-16T15:56:49.473Z,99780.02
2019-05-16T15:59:18.178Z,99789.77
2019-05-16T16:01:47.371Z,99786.83
2019-05-16T16:04:17.555Z,99780.30
2019-05-16T16:06:47.383Z,99775.30
2019-05-16T16:09:17.265Z,99783.73
2019-05-16T16:11:44.583Z,99785.53
2019-05-16T16:14:13.870Z,99778.27
2019-05-16T16:16:41.511Z,99783.49
2019-05-16T16:19:09.277Z,99791.88
2019-05-16T16:21:38.019Z,99783.83
2019-05-16T16:24:09.210Z,99792.95
2019-05-16T16:26:38.157Z,99794.18
2019-05-16T16:30:12.241Z,99788.29
2019-05-16T16:32:40.238Z,99791.45
2019-05-16T16:35:08.356Z,99793.77
2019-05-16T16:37:37.688Z,99794.34
2019-05-16T16:41:49.497Z,99806.77
2019-05-16T16:46:42.254Z,99813.00
2019-05-16T16:50:42.422Z,99808.45
2019-05-16T16:53:30.977Z,99812.08
2019-05-16T16:57:47.370Z,99826.17
2019-05-16T17:00:17.291Z,99824.13
2019-05-16T17:02:58.429Z,99825.94
2019-05-16T17:05:42.114Z,99829.83
2019-05-16T17:08:10.863Z,99833.43
2019-05-16T17:10:39.557Z,99832.87
2019-05-16T17:13:09.665Z,99843.95
2019-05-16T17:15:38.376Z,99841.17
2019-05-16T17:18:07.302Z,99836.45
2019-05-16T17:31:01.765Z,99864.59
2019-05-16T17:33:33.572Z,99863.77
2019-05-16T17:36:09.254Z,99870.83
2019-05-16T17:38:38.929Z,99865.56
2019-05-16T17:41:10.464Z,99865.58
2019-05-16T17:43:42.124Z,99868.91
2019-05-16T17:46:13.865Z,99872.75
2019-05-16T17:48:46.799Z,99862.48
2019-05-16T17:51:18.563Z,99865.64
2019-05-16T17:53:50.041Z,99879.80
2019-05-16T17:56:20.739Z,99885.45
2019-05-16T17:58:52.097Z,99878.08
2019-05-16T18:01:23.682Z,99879.36
2019-05-16T18:03:57.216Z,99887.98
2019-05-16T18:06:29.122Z,99885.86
2019-05-16T18:09:00.805Z,99894.58
2019-05-16T18:11:32.552Z,99896.13
2019-05-16T18:14:06.163Z,99894.33
2019-05-16T18:16:51.726Z,99897.45
2019-05-16T18:19:11.314Z,99901.98
2019-05-16T18:21:42.978Z,99896.67
2019-05-16T18:24:16.724Z,99902.24
2019-05-16T18:26:48.129Z,99906.04
2019-05-16T18:29:19.871Z,99902.03
2019-05-16T18:31:51.540Z,99898.38
2019-05-16T18:34:23.187Z,99902.73
2019-05-16T18:36:57.086Z,99894.96
2019-05-16T18:39:28.437Z,99900.41
2019-05-16T18:42:00.041Z,99903.20
2019-05-16T18:44:32.392Z,99905.20
2019-05-16T18:47:08.444Z,99911.14
2019-05-16T18:49:37.832Z,99902.63
2019-05-16T18:52:09.536Z,99911.36
2019-05-16T18:54:41.288Z,99911.81
2019-05-16T18:57:12.808Z,99913.34
2019-05-16T18:59:46.260Z,99902.13
2019-05-16T19:02:18.099Z,99906.77
2019-05-16T19:04:50.289Z,99906.19
2019-05-16T19:07:22.284Z,99914.47
2019-05-16T19:09:53.881Z,99912.09
2019-05-16T19:12:26.276Z,99916.31
2019-05-16T19:15:00.241Z,99915.55
2019-05-16T19:17:31.563Z,99925.14
2019-05-16T19:20:03.448Z,99932.44
2019-05-16T19:22:37.158Z,99927.84
2019-05-16T19:25:09.430Z,99931.16
2019-05-16T19:27:41.192Z,99922.05
2019-05-16T19:30:13.924Z,99931.99
2019-05-16T19:32:46.875Z,99931.20
2019-05-16T19:35:18.913Z,99930.11
2019-05-16T19:37:50.645Z,99930.83
2019-05-16T19:40:22.543Z,99935.03
2019-05-16T19:42:56.567Z,99934.42
2019-05-16T19:45:28.223Z,99941.62
2019-05-16T19:47:59.921Z,99940.46
2019-05-16T19:50:31.621Z,99938.92
2019-05-16T19:53:03.284Z,99934.75
2019-05-16T19:55:36.523Z,99941.51
2019-05-16T19:58:10.330Z,99944.84
2019-05-16T20:00:42.559Z,99937.58
2019-05-16T20:03:16.523Z,99941.25
2019-05-16T20:05:47.981Z,99943.16
2019-05-16T20:08:19.740Z,99941.59
2019-05-16T20:10:51.576Z,99934.20
2019-05-16T20:13:23.404Z,99933.05
2019-05-16T20:15:56.513Z,99942.73
2019-05-16T20:18:28.535Z,99948.03
2019-05-16T20:21:00.641Z,99947.33
2019-05-16T20:23:32.128Z,99948.19
2019-05-16T20:26:02.816Z,99949.20
2019-05-16T20:28:34.233Z,99950.17
2019-05-16T20:31:07.884Z,99953.28
2019-05-16T20:33:39.510Z,99947.19
2019-05-16T20:36:11.167Z,99954.31
2019-05-16T20:38:42.984Z,99953.66
2019-05-16T20:41:16.901Z,99961.71
2019-05-16T20:43:48.246Z,99958.70
2019-05-16T20:46:19.943Z,99965.57
2019-05-16T20:48:51.491Z,99962.06
2019-05-16T20:51:21.895Z,99967.48
2019-05-16T20:53:53.428Z,99969.81
2019-05-16T20:56:26.534Z,99969.05
2019-05-16T20:58:58.286Z,99970.98
2019-05-16T21:01:29.859Z,99975.50
2019-05-16T21:04:01.464Z,99975.59
2019-05-16T21:06:33.417Z,99985.37
2019-05-16T21:09:06.740Z,99973.52
2019-05-16T21:11:38.536Z,99969.23
2019-05-16T21:14:10.167Z,99975.98
2019-05-16T21:16:41.872Z,99978.69
2019-05-16T21:19:13.674Z,99977.36
2019-05-16T21:21:47.093Z,99974.85
2019-05-16T21:24:18.830Z,99979.23
2019-05-16T21:26:50.517Z,99981.52
2019-05-16T21:29:22.348Z,99982.88
2019-05-16T21:31:56.485Z,99982.98
2019-05-16T21:34:27.597Z,99978.60
2019-05-16T21:37:11.292Z,99983.07
2019-05-16T21:39:32.811Z,99982.30
2019-05-16T21:42:07.217Z,99978.45
2019-05-16T21:44:37.775Z,99972.86
2019-05-16T21:47:09.562Z,99973.36
2019-05-16T21:49:41.314Z,99974.85
2019-05-16T21:52:13.102Z,99980.78
2019-05-16T21:54:47.052Z,99989.25
2019-05-16T21:57:19.934Z,99981.45
2019-05-16T21:59:51.635Z,99990.01
2019-05-16T22:02:23.486Z,99985.89
2019-05-16T22:04:56.898Z,99982.50
2019-05-16T22:07:33.632Z,99981.30
2019-05-16T22:10:03.100Z,99979.69
2019-05-16T22:12:34.956Z,99984.60
2019-05-16T22:15:07.397Z,99972.84
2019-05-16T22:17:39.161Z,99974.77
2019-05-16T22:20:11.434Z,99973.98
2019-05-16T22:22:43.115Z,99974.59
2019-05-16T22:25:16.733Z,99975.51
2019-05-16T22:27:49.031Z,99971.13
